sensor_id;sensor_type;location;lat;lon;timestamp;temperature;humidity
42149;DHT22;64624;47.208;8.706;2024-01-25T00:01:12;15.00;62.70
42149;DHT22;64624;47.208;8.706;2024-01-25T00:03:38;15.00;63.30
42149;DHT22;64624;47.208;8.706;2024-01-25T00:06:07;15.00;62.80
42149;DHT22;64624;47.208;8.706;2024-01-25T00:08:35;15.10;62.90
42149;DHT22;64624;47.208;8.706;2024-01-25T00:11:02;15.00;62.90
42149;DHT22;64624;47.208;8.706;2024-01-25T00:13:28;15.00;63.40
42149;DHT22;64624;47.208;8.706;2024-01-25T00:15:54;15.00;62.90
42149;DHT22;64624;47.208;8.706;2024-01-25T00:18:20;15.00;62.90
42149;DHT22;64624;47.208;8.706;2024-01-25T00:20:45;15.10;63.00
42149;DHT22;64624;47.208;8.706;2024-01-25T00:23:11;15.00;62.90
42149;DHT22;64624;47.208;8.706;2024-01-25T00:25:37;15.00;62.90
42149;DHT22;64624;47.208;8.706;2024-01-25T00:28:03;15.00;63.00
42149;DHT22;64624;47.208;8.706;2024-01-25T00:30:29;15.00;63.00
42149;DHT22;64624;47.208;8.706;2024-01-25T00:32:56;15.10;63.00
42149;DHT22;64624;47.208;8.706;2024-01-25T00:35:25;15.10;63.00
42149;DHT22;64624;47.208;8.706;2024-01-25T00:37:51;15.10;63.00
42149;DHT22;64624;47.208;8.706;2024-01-25T00:40:18;15.10;63.00
42149;DHT22;64624;47.208;8.706;2024-01-25T00:42:45;15.10;63.10
42149;DHT22;64624;47.208;8.706;2024-01-25T00:45:18;15.10;63.00
42149;DHT22;64624;47.208;8.706;2024-01-25T00:47:44;15.00;63.00
42149;DHT22;64624;47.208;8.706;2024-01-25T00:50:10;15.10;63.00
42149;DHT22;64624;47.208;8.706;2024-01-25T00:52:36;15.00;63.00
42149;DHT22;64624;47.208;8.706;2024-01-25T00:55:03;15.10;63.00
42149;DHT22;64624;47.208;8.706;2024-01-25T00:57:29;15.10;63.00
42149;DHT22;64624;47.208;8.706;2024-01-25T00:59:55;15.10;63.10
42149;DHT22;64624;47.208;8.706;2024-01-25T01:02:21;15.10;63.10
42149;DHT22;64624;47.208;8.706;2024-01-25T01:04:48;15.00;63.00
42149;DHT22;64624;47.208;8.706;2024-01-25T01:07:20;15.10;63.10
42149;DHT22;64624;47.208;8.706;2024-01-25T01:09:46;15.10;63.10
42149;DHT22;64624;47.208;8.706;2024-01-25T01:12:12;15.10;63.10
42149;DHT22;64624;47.208;8.706;2024-01-25T01:14:37;15.10;63.10
42149;DHT22;64624;47.208;8.706;2024-01-25T01:17:03;15.10;63.10
42149;DHT22;64624;47.208;8.706;2024-01-25T01:19:29;15.10;63.60
42149;DHT22;64624;47.208;8.706;2024-01-25T01:21:54;15.10;63.20
42149;DHT22;64624;47.208;8.706;2024-01-25T01:24:20;15.10;63.20
42149;DHT22;64624;47.208;8.706;2024-01-25T01:26:45;15.10;63.20
42149;DHT22;64624;47.208;8.706;2024-01-25T01:29:12;15.10;63.20
42149;DHT22;64624;47.208;8.706;2024-01-25T01:31:37;15.10;63.20
42149;DHT22;64624;47.208;8.706;2024-01-25T01:34:03;15.10;63.20
42149;DHT22;64624;47.208;8.706;2024-01-25T01:36:29;15.10;63.20
42149;DHT22;64624;47.208;8.706;2024-01-25T01:38:55;15.10;63.20
42149;DHT22;64624;47.208;8.706;2024-01-25T01:41:20;15.10;63.30
42149;DHT22;64624;47.208;8.706;2024-01-25T01:43:46;15.10;63.20
42149;DHT22;64624;47.208;8.706;2024-01-25T01:46:41;15.10;63.20
42149;DHT22;64624;47.208;8.706;2024-01-25T01:49:11;15.10;63.20
42149;DHT22;64624;47.208;8.706;2024-01-25T01:51:38;15.10;63.20
42149;DHT22;64624;47.208;8.706;2024-01-25T01:54:06;15.10;63.20
42149;DHT22;64624;47.208;8.706;2024-01-25T01:56:33;15.10;63.30
42149;DHT22;64624;47.208;8.706;2024-01-25T01:59:04;15.10;63.30
42149;DHT22;64624;47.208;8.706;2024-01-25T02:01:30;15.10;63.30
42149;DHT22;64624;47.208;8.706;2024-01-25T02:03:56;15.10;63.30
42149;DHT22;64624;47.208;8.706;2024-01-25T02:06:23;15.10;63.30
42149;DHT22;64624;47.208;8.706;2024-01-25T02:08:49;15.10;63.30
42149;DHT22;64624;47.208;8.706;2024-01-25T02:11:26;15.10;63.30
42149;DHT22;64624;47.208;8.706;2024-01-25T02:13:52;15.10;63.30
42149;DHT22;64624;47.208;8.706;2024-01-25T02:16:18;15.10;63.30
42149;DHT22;64624;47.208;8.706;2024-01-25T02:18:45;15.10;63.30
42149;DHT22;64624;47.208;8.706;2024-01-25T02:21:12;15.10;63.40
42149;DHT22;64624;47.208;8.706;2024-01-25T02:23:37;15.10;63.40
42149;DHT22;64624;47.208;8.706;2024-01-25T02:26:03;15.10;63.30
42149;DHT22;64624;47.208;8.706;2024-01-25T02:28:29;15.10;63.30
42149;DHT22;64624;47.208;8.706;2024-01-25T02:30:55;15.10;63.30
42149;DHT22;64624;47.208;8.706;2024-01-25T02:33:20;15.10;63.30
42149;DHT22;64624;47.208;8.706;2024-01-25T02:35:46;15.10;63.40
42149;DHT22;64624;47.208;8.706;2024-01-25T02:38:12;15.10;63.30
42149;DHT22;64624;47.208;8.706;2024-01-25T02:40:37;15.10;63.30
42149;DHT22;64624;47.208;8.706;2024-01-25T02:43:03;15.10;63.30
42149;DHT22;64624;47.208;8.706;2024-01-25T02:45:29;15.10;63.30
42149;DHT22;64624;47.208;8.706;2024-01-25T02:47:54;15.10;63.30
42149;DHT22;64624;47.208;8.706;2024-01-25T02:50:20;15.10;63.30
42149;DHT22;64624;47.208;8.706;2024-01-25T02:52:46;15.10;63.30
42149;DHT22;64624;47.208;8.706;2024-01-25T02:55:12;15.10;63.40
42149;DHT22;64624;47.208;8.706;2024-01-25T02:57:38;15.10;63.30
42149;DHT22;64624;47.208;8.706;2024-01-25T03:00:04;15.10;63.30
42149;DHT22;64624;47.208;8.706;2024-01-25T03:02:30;15.10;63.30
42149;DHT22;64624;47.208;8.706;2024-01-25T03:04:56;15.10;63.30
42149;DHT22;64624;47.208;8.706;2024-01-25T03:07:22;15.10;63.30
42149;DHT22;64624;47.208;8.706;2024-01-25T03:09:48;15.10;63.40
42149;DHT22;64624;47.208;8.706;2024-01-25T03:12:14;15.10;63.30
42149;DHT22;64624;47.208;8.706;2024-01-25T03:14:39;15.10;63.30
42149;DHT22;64624;47.208;8.706;2024-01-25T03:17:05;15.10;63.30
42149;DHT22;64624;47.208;8.706;2024-01-25T03:19:31;15.10;63.30
42149;DHT22;64624;47.208;8.706;2024-01-25T03:21:56;15.10;63.30
42149;DHT22;64624;47.208;8.706;2024-01-25T03:24:22;15.10;63.30
42149;DHT22;64624;47.208;8.706;2024-01-25T03:26:48;15.10;63.30
42149;DHT22;64624;47.208;8.706;2024-01-25T03:29:14;15.10;63.30
42149;DHT22;64624;47.208;8.706;2024-01-25T03:31:40;15.10;63.40
42149;DHT22;64624;47.208;8.706;2024-01-25T03:34:05;15.10;63.30
42149;DHT22;64624;47.208;8.706;2024-01-25T03:36:31;15.20;63.40
42149;DHT22;64624;47.208;8.706;2024-01-25T03:38:57;15.20;63.40
42149;DHT22;64624;47.208;8.706;2024-01-25T03:41:23;15.10;63.30
42149;DHT22;64624;47.208;8.706;2024-01-25T03:43:49;15.10;63.30
42149;DHT22;64624;47.208;8.706;2024-01-25T03:46:15;15.20;63.40
42149;DHT22;64624;47.208;8.706;2024-01-25T03:48:41;15.10;63.30
42149;DHT22;64624;47.208;8.706;2024-01-25T03:51:07;15.20;63.40
42149;DHT22;64624;47.208;8.706;2024-01-25T03:53:32;15.10;63.30
42149;DHT22;64624;47.208;8.706;2024-01-25T03:55:58;15.20;63.40
42149;DHT22;64624;47.208;8.706;2024-01-25T03:58:24;15.20;63.40
42149;DHT22;64624;47.208;8.706;2024-01-25T04:00:49;15.10;63.30
42149;DHT22;64624;47.208;8.706;2024-01-25T04:03:15;15.10;63.30
42149;DHT22;64624;47.208;8.706;2024-01-25T04:05:41;15.20;63.40
42149;DHT22;64624;47.208;8.706;2024-01-25T04:08:06;15.20;63.40
42149;DHT22;64624;47.208;8.706;2024-01-25T04:10:32;15.20;63.40
42149;DHT22;64624;47.208;8.706;2024-01-25T04:12:58;15.10;63.30
42149;DHT22;64624;47.208;8.706;2024-01-25T04:15:26;15.20;63.40
42149;DHT22;64624;47.208;8.706;2024-01-25T04:17:52;15.20;63.40
42149;DHT22;64624;47.208;8.706;2024-01-25T04:20:19;15.10;63.40
42149;DHT22;64624;47.208;8.706;2024-01-25T04:22:45;15.20;63.40
42149;DHT22;64624;47.208;8.706;2024-01-25T04:25:11;15.10;63.40
42149;DHT22;64624;47.208;8.706;2024-01-25T04:27:40;15.20;63.40
42149;DHT22;64624;47.208;8.706;2024-01-25T04:30:06;15.10;63.40
42149;DHT22;64624;47.208;8.706;2024-01-25T04:32:32;15.20;63.40
42149;DHT22;64624;47.208;8.706;2024-01-25T04:34:58;15.10;63.90
42149;DHT22;64624;47.208;8.706;2024-01-25T04:37:24;15.20;63.40
42149;DHT22;64624;47.208;8.706;2024-01-25T04:39:49;15.10;63.30
42149;DHT22;64624;47.208;8.706;2024-01-25T04:42:15;15.20;63.40
42149;DHT22;64624;47.208;8.706;2024-01-25T04:44:41;15.20;63.40
42149;DHT22;64624;47.208;8.706;2024-01-25T04:47:07;15.20;63.50
42149;DHT22;64624;47.208;8.706;2024-01-25T04:49:32;15.20;63.40
42149;DHT22;64624;47.208;8.706;2024-01-25T04:51:58;15.20;63.50
42149;DHT22;64624;47.208;8.706;2024-01-25T04:54:24;15.20;63.50
42149;DHT22;64624;47.208;8.706;2024-01-25T04:56:49;15.10;63.40
42149;DHT22;64624;47.208;8.706;2024-01-25T04:59:15;15.20;63.50
42149;DHT22;64624;47.208;8.706;2024-01-25T05:01:41;15.20;63.40
42149;DHT22;64624;47.208;8.706;2024-01-25T05:04:06;15.20;63.40
42149;DHT22;64624;47.208;8.706;2024-01-25T05:06:32;15.20;63.50
42149;DHT22;64624;47.208;8.706;2024-01-25T05:08:58;15.20;63.40
42149;DHT22;64624;47.208;8.706;2024-01-25T05:11:24;15.20;63.40
42149;DHT22;64624;47.208;8.706;2024-01-25T05:13:49;15.20;63.70
42149;DHT22;64624;47.208;8.706;2024-01-25T05:16:15;15.20;63.40
42149;DHT22;64624;47.208;8.706;2024-01-25T05:18:41;15.20;63.40
42149;DHT22;64624;47.208;8.706;2024-01-25T05:21:06;15.20;63.40
42149;DHT22;64624;47.208;8.706;2024-01-25T05:23:32;15.20;63.40
42149;DHT22;64624;47.208;8.706;2024-01-25T05:25:58;15.20;63.40
42149;DHT22;64624;47.208;8.706;2024-01-25T05:28:23;15.20;63.40
42149;DHT22;64624;47.208;8.706;2024-01-25T05:30:50;15.20;63.40
42149;DHT22;64624;47.208;8.706;2024-01-25T05:33:16;15.20;63.40
42149;DHT22;64624;47.208;8.706;2024-01-25T05:35:42;15.20;63.40
42149;DHT22;64624;47.208;8.706;2024-01-25T05:38:07;15.20;63.40
42149;DHT22;64624;47.208;8.706;2024-01-25T05:40:36;15.30;63.40
42149;DHT22;64624;47.208;8.706;2024-01-25T05:43:02;15.20;63.40
42149;DHT22;64624;47.208;8.706;2024-01-25T05:45:28;15.30;63.40
42149;DHT22;64624;47.208;8.706;2024-01-25T05:47:54;15.30;63.40
42149;DHT22;64624;47.208;8.706;2024-01-25T05:50:19;15.30;63.40
42149;DHT22;64624;47.208;8.706;2024-01-25T05:52:45;15.20;63.40
42149;DHT22;64624;47.208;8.706;2024-01-25T05:55:11;15.20;63.40
42149;DHT22;64624;47.208;8.706;2024-01-25T05:57:37;15.30;63.40
42149;DHT22;64624;47.208;8.706;2024-01-25T06:00:03;15.30;63.40
42149;DHT22;64624;47.208;8.706;2024-01-25T06:02:30;15.30;63.50
42149;DHT22;64624;47.208;8.706;2024-01-25T06:04:56;15.20;63.40
42149;DHT22;64624;47.208;8.706;2024-01-25T06:07:24;15.30;63.60
42149;DHT22;64624;47.208;8.706;2024-01-25T06:09:50;15.20;63.50
42149;DHT22;64624;47.208;8.706;2024-01-25T06:12:16;15.20;63.50
42149;DHT22;64624;47.208;8.706;2024-01-25T06:14:42;15.30;63.60
42149;DHT22;64624;47.208;8.706;2024-01-25T06:17:08;15.30;63.50
42149;DHT22;64624;47.208;8.706;2024-01-25T06:19:34;15.20;63.50
42149;DHT22;64624;47.208;8.706;2024-01-25T06:22:00;15.20;63.50
42149;DHT22;64624;47.208;8.706;2024-01-25T06:24:26;15.20;63.50
42149;DHT22;64624;47.208;8.706;2024-01-25T06:26:54;15.30;63.50
42149;DHT22;64624;47.208;8.706;2024-01-25T06:29:20;15.30;63.50
42149;DHT22;64624;47.208;8.706;2024-01-25T06:31:46;15.30;63.50
42149;DHT22;64624;47.208;8.706;2024-01-25T06:34:12;15.30;63.50
42149;DHT22;64624;47.208;8.706;2024-01-25T06:36:38;15.30;63.60
42149;DHT22;64624;47.208;8.706;2024-01-25T06:39:04;15.30;63.60
42149;DHT22;64624;47.208;8.706;2024-01-25T06:41:30;15.30;63.60
42149;DHT22;64624;47.208;8.706;2024-01-25T06:43:56;15.30;63.60
42149;DHT22;64624;47.208;8.706;2024-01-25T06:46:22;15.30;63.70
42149;DHT22;64624;47.208;8.706;2024-01-25T06:48:50;15.30;63.60
42149;DHT22;64624;47.208;8.706;2024-01-25T06:51:15;15.30;63.50
42149;DHT22;64624;47.208;8.706;2024-01-25T06:53:41;15.30;63.60
42149;DHT22;64624;47.208;8.706;2024-01-25T06:56:07;15.30;63.60
42149;DHT22;64624;47.208;8.706;2024-01-25T06:58:33;15.30;63.60
42149;DHT22;64624;47.208;8.706;2024-01-25T07:00:59;15.30;63.60
42149;DHT22;64624;47.208;8.706;2024-01-25T07:03:28;15.30;63.60
42149;DHT22;64624;47.208;8.706;2024-01-25T07:05:54;15.30;63.70
42149;DHT22;64624;47.208;8.706;2024-01-25T07:08:20;15.30;63.60
42149;DHT22;64624;47.208;8.706;2024-01-25T07:10:46;15.30;63.70
42149;DHT22;64624;47.208;8.706;2024-01-25T07:13:12;15.30;63.60
42149;DHT22;64624;47.208;8.706;2024-01-25T07:15:38;15.30;63.70
42149;DHT22;64624;47.208;8.706;2024-01-25T07:18:04;15.30;63.60
42149;DHT22;64624;47.208;8.706;2024-01-25T07:20:30;15.30;63.60
42149;DHT22;64624;47.208;8.706;2024-01-25T07:22:56;15.30;63.60
42149;DHT22;64624;47.208;8.706;2024-01-25T07:25:22;15.30;63.60
42149;DHT22;64624;47.208;8.706;2024-01-25T07:27:48;15.30;63.60
42149;DHT22;64624;47.208;8.706;2024-01-25T07:30:14;15.30;63.60
42149;DHT22;64624;47.208;8.706;2024-01-25T07:32:41;15.40;63.60
42149;DHT22;64624;47.208;8.706;2024-01-25T07:35:10;15.30;63.60
42149;DHT22;64624;47.208;8.706;2024-01-25T07:37:38;15.30;63.60
42149;DHT22;64624;47.208;8.706;2024-01-25T07:40:04;15.30;63.60
42149;DHT22;64624;47.208;8.706;2024-01-25T07:42:30;15.40;63.70
42149;DHT22;64624;47.208;8.706;2024-01-25T07:44:56;15.40;64.10
42149;DHT22;64624;47.208;8.706;2024-01-25T07:47:22;15.30;63.60
42149;DHT22;64624;47.208;8.706;2024-01-25T07:49:48;15.30;63.50
42149;DHT22;64624;47.208;8.706;2024-01-25T07:52:14;15.40;63.60
42149;DHT22;64624;47.208;8.706;2024-01-25T07:54:40;15.40;63.60
42149;DHT22;64624;47.208;8.706;2024-01-25T07:57:05;15.40;63.60
42149;DHT22;64624;47.208;8.706;2024-01-25T07:59:31;15.40;63.60
42149;DHT22;64624;47.208;8.706;2024-01-25T08:01:57;15.30;63.60
42149;DHT22;64624;47.208;8.706;2024-01-25T08:04:22;15.40;63.70
42149;DHT22;64624;47.208;8.706;2024-01-25T08:06:48;15.40;63.60
42149;DHT22;64624;47.208;8.706;2024-01-25T08:09:14;15.40;63.70
42149;DHT22;64624;47.208;8.706;2024-01-25T08:11:39;15.40;63.70
42149;DHT22;64624;47.208;8.706;2024-01-25T08:14:05;15.40;63.70
42149;DHT22;64624;47.208;8.706;2024-01-25T08:16:31;15.40;63.70
42149;DHT22;64624;47.208;8.706;2024-01-25T08:18:57;15.40;63.70
42149;DHT22;64624;47.208;8.706;2024-01-25T08:21:24;15.40;63.70
42149;DHT22;64624;47.208;8.706;2024-01-25T08:23:49;15.30;63.70
42149;DHT22;64624;47.208;8.706;2024-01-25T08:26:15;15.30;63.80
42149;DHT22;64624;47.208;8.706;2024-01-25T08:28:41;15.40;64.30
42149;DHT22;64624;47.208;8.706;2024-01-25T08:31:11;15.40;64.90
42149;DHT22;64624;47.208;8.706;2024-01-25T08:33:39;15.40;64.80
42149;DHT22;64624;47.208;8.706;2024-01-25T08:36:10;15.30;64.40
42149;DHT22;64624;47.208;8.706;2024-01-25T08:38:35;15.40;64.30
42149;DHT22;64624;47.208;8.706;2024-01-25T08:41:02;15.30;64.20
42149;DHT22;64624;47.208;8.706;2024-01-25T08:43:30;15.40;64.10
42149;DHT22;64624;47.208;8.706;2024-01-25T08:45:56;15.40;64.10
42149;DHT22;64624;47.208;8.706;2024-01-25T08:48:22;15.40;65.30
42149;DHT22;64624;47.208;8.706;2024-01-25T08:50:47;15.40;66.30
42149;DHT22;64624;47.208;8.706;2024-01-25T08:53:18;15.40;67.60
42149;DHT22;64624;47.208;8.706;2024-01-25T08:55:44;15.50;66.60
42149;DHT22;64624;47.208;8.706;2024-01-25T08:58:10;15.50;67.90
42149;DHT22;64624;47.208;8.706;2024-01-25T09:00:36;15.50;69.10
42149;DHT22;64624;47.208;8.706;2024-01-25T09:03:01;15.50;69.40
42149;DHT22;64624;47.208;8.706;2024-01-25T09:05:27;15.60;68.30
42149;DHT22;64624;47.208;8.706;2024-01-25T09:07:54;15.60;67.10
42149;DHT22;64624;47.208;8.706;2024-01-25T09:10:19;15.50;66.60
42149;DHT22;64624;47.208;8.706;2024-01-25T09:12:45;15.60;66.30
42149;DHT22;64624;47.208;8.706;2024-01-25T09:15:11;15.60;66.00
42149;DHT22;64624;47.208;8.706;2024-01-25T09:17:36;15.60;65.80
42149;DHT22;64624;47.208;8.706;2024-01-25T09:20:02;15.60;65.70
42149;DHT22;64624;47.208;8.706;2024-01-25T09:22:28;15.60;65.50
42149;DHT22;64624;47.208;8.706;2024-01-25T09:24:54;15.60;65.40
42149;DHT22;64624;47.208;8.706;2024-01-25T09:27:20;15.50;65.20
42149;DHT22;64624;47.208;8.706;2024-01-25T09:29:45;15.60;65.20
42149;DHT22;64624;47.208;8.706;2024-01-25T09:32:11;15.60;65.20
42149;DHT22;64624;47.208;8.706;2024-01-25T09:34:37;15.50;65.00
42149;DHT22;64624;47.208;8.706;2024-01-25T09:37:04;15.50;64.90
42149;DHT22;64624;47.208;8.706;2024-01-25T09:39:31;15.50;64.90
42149;DHT22;64624;47.208;8.706;2024-01-25T09:41:57;15.60;64.90
42149;DHT22;64624;47.208;8.706;2024-01-25T09:44:23;15.50;64.80
42149;DHT22;64624;47.208;8.706;2024-01-25T09:46:51;15.50;65.20
42149;DHT22;64624;47.208;8.706;2024-01-25T09:49:16;15.50;65.30
42149;DHT22;64624;47.208;8.706;2024-01-25T09:51:43;15.50;65.20
42149;DHT22;64624;47.208;8.706;2024-01-25T09:54:09;15.50;65.10
42149;DHT22;64624;47.208;8.706;2024-01-25T09:56:35;15.60;65.10
42149;DHT22;64624;47.208;8.706;2024-01-25T09:59:02;15.50;65.40
42149;DHT22;64624;47.208;8.706;2024-01-25T10:01:29;15.50;65.40
42149;DHT22;64624;47.208;8.706;2024-01-25T10:03:55;15.50;65.60
42149;DHT22;64624;47.208;8.706;2024-01-25T10:06:22;15.50;65.40
42149;DHT22;64624;47.208;8.706;2024-01-25T10:08:48;15.50;65.30
42149;DHT22;64624;47.208;8.706;2024-01-25T10:11:14;15.50;65.40
42149;DHT22;64624;47.208;8.706;2024-01-25T10:13:41;15.50;65.10
42149;DHT22;64624;47.208;8.706;2024-01-25T10:16:11;15.50;65.10
42149;DHT22;64624;47.208;8.706;2024-01-25T10:18:36;15.50;65.00
42149;DHT22;64624;47.208;8.706;2024-01-25T10:21:03;15.50;65.00
42149;DHT22;64624;47.208;8.706;2024-01-25T10:23:29;15.50;64.90
42149;DHT22;64624;47.208;8.706;2024-01-25T10:25:56;15.50;64.90
42149;DHT22;64624;47.208;8.706;2024-01-25T10:28:24;15.50;64.90
42149;DHT22;64624;47.208;8.706;2024-01-25T10:30:50;15.50;64.90
42149;DHT22;64624;47.208;8.706;2024-01-25T10:33:17;15.50;65.00
42149;DHT22;64624;47.208;8.706;2024-01-25T10:35:45;15.50;64.90
42149;DHT22;64624;47.208;8.706;2024-01-25T10:38:17;15.50;64.80
42149;DHT22;64624;47.208;8.706;2024-01-25T10:40:43;15.50;64.80
42149;DHT22;64624;47.208;8.706;2024-01-25T10:43:10;15.50;64.80
42149;DHT22;64624;47.208;8.706;2024-01-25T10:45:36;15.50;64.70
42149;DHT22;64624;47.208;8.706;2024-01-25T10:48:02;15.50;64.70
42149;DHT22;64624;47.208;8.706;2024-01-25T10:50:28;15.50;64.70
42149;DHT22;64624;47.208;8.706;2024-01-25T10:52:53;15.50;64.70
42149;DHT22;64624;47.208;8.706;2024-01-25T10:55:19;15.50;64.80
42149;DHT22;64624;47.208;8.706;2024-01-25T10:57:46;15.50;64.70
42149;DHT22;64624;47.208;8.706;2024-01-25T11:00:14;15.50;64.70
42149;DHT22;64624;47.208;8.706;2024-01-25T11:02:42;15.50;64.70
42149;DHT22;64624;47.208;8.706;2024-01-25T11:05:17;15.50;64.70
42149;DHT22;64624;47.208;8.706;2024-01-25T11:07:50;15.50;64.70
42149;DHT22;64624;47.208;8.706;2024-01-25T11:10:24;15.50;64.60
42149;DHT22;64624;47.208;8.706;2024-01-25T11:12:57;15.50;64.70
42149;DHT22;64624;47.208;8.706;2024-01-25T11:15:31;15.50;64.60
42149;DHT22;64624;47.208;8.706;2024-01-25T11:17:58;15.50;64.60
42149;DHT22;64624;47.208;8.706;2024-01-25T11:20:25;15.50;64.60
42149;DHT22;64624;47.208;8.706;2024-01-25T11:23:06;15.50;64.60
42149;DHT22;64624;47.208;8.706;2024-01-25T11:25:35;15.50;64.70
42149;DHT22;64624;47.208;8.706;2024-01-25T11:28:02;15.60;64.70
42149;DHT22;64624;47.208;8.706;2024-01-25T11:30:30;15.50;64.60
42149;DHT22;64624;47.208;8.706;2024-01-25T11:32:56;15.50;64.60
42149;DHT22;64624;47.208;8.706;2024-01-25T11:35:22;15.50;64.50
42149;DHT22;64624;47.208;8.706;2024-01-25T11:37:49;15.60;64.60
42149;DHT22;64624;47.208;8.706;2024-01-25T11:40:15;15.60;64.60
42149;DHT22;64624;47.208;8.706;2024-01-25T11:42:42;15.50;64.70
42149;DHT22;64624;47.208;8.706;2024-01-25T11:45:18;15.50;64.60
42149;DHT22;64624;47.208;8.706;2024-01-25T11:47:44;15.50;64.60
42149;DHT22;64624;47.208;8.706;2024-01-25T11:50:12;15.50;64.50
42149;DHT22;64624;47.208;8.706;2024-01-25T11:52:38;15.60;64.60
42149;DHT22;64624;47.208;8.706;2024-01-25T11:55:05;15.60;64.60
42149;DHT22;64624;47.208;8.706;2024-01-25T11:57:36;15.50;64.50
42149;DHT22;64624;47.208;8.706;2024-01-25T12:00:03;15.50;64.50
42149;DHT22;64624;47.208;8.706;2024-01-25T12:02:30;15.50;64.60
42149;DHT22;64624;47.208;8.706;2024-01-25T12:04:57;15.60;64.60
42149;DHT22;64624;47.208;8.706;2024-01-25T12:07:23;15.50;64.60
42149;DHT22;64624;47.208;8.706;2024-01-25T12:10:02;15.60;64.70
42149;DHT22;64624;47.208;8.706;2024-01-25T12:12:29;15.50;64.60
42149;DHT22;64624;47.208;8.706;2024-01-25T12:15:01;15.60;64.60
42149;DHT22;64624;47.208;8.706;2024-01-25T12:17:29;15.50;64.60
42149;DHT22;64624;47.208;8.706;2024-01-25T12:19:59;15.60;64.70
42149;DHT22;64624;47.208;8.706;2024-01-25T12:22:27;15.60;64.70
42149;DHT22;64624;47.208;8.706;2024-01-25T12:24:57;15.60;64.60
42149;DHT22;64624;47.208;8.706;2024-01-25T12:27:25;15.60;64.70
42149;DHT22;64624;47.208;8.706;2024-01-25T12:29:52;15.60;64.70
42149;DHT22;64624;47.208;8.706;2024-01-25T12:32:21;15.60;64.70
42149;DHT22;64624;47.208;8.706;2024-01-25T12:34:57;15.60;64.70
42149;DHT22;64624;47.208;8.706;2024-01-25T12:37:24;15.60;64.80
42149;DHT22;64624;47.208;8.706;2024-01-25T12:39:51;15.60;64.70
42149;DHT22;64624;47.208;8.706;2024-01-25T12:42:18;15.60;64.70
42149;DHT22;64624;47.208;8.706;2024-01-25T12:44:44;15.60;64.70
42149;DHT22;64624;47.208;8.706;2024-01-25T12:47:11;15.60;64.70
42149;DHT22;64624;47.208;8.706;2024-01-25T12:49:43;15.60;64.80
42149;DHT22;64624;47.208;8.706;2024-01-25T12:52:13;15.60;64.80
42149;DHT22;64624;47.208;8.706;2024-01-25T12:54:39;15.60;64.80
42149;DHT22;64624;47.208;8.706;2024-01-25T12:57:05;15.60;64.80
42149;DHT22;64624;47.208;8.706;2024-01-25T12:59:32;15.60;64.80
42149;DHT22;64624;47.208;8.706;2024-01-25T13:01:58;15.60;64.80
42149;DHT22;64624;47.208;8.706;2024-01-25T13:04:24;15.60;64.90
42149;DHT22;64624;47.208;8.706;2024-01-25T13:06:53;15.60;64.90
42149;DHT22;64624;47.208;8.706;2024-01-25T13:09:19;15.60;64.90
42149;DHT22;64624;47.208;8.706;2024-01-25T13:11:46;15.60;64.90
42149;DHT22;64624;47.208;8.706;2024-01-25T13:14:12;15.60;64.90
42149;DHT22;64624;47.208;8.706;2024-01-25T13:16:37;15.60;64.90
42149;DHT22;64624;47.208;8.706;2024-01-25T13:19:03;15.60;64.90
42149;DHT22;64624;47.208;8.706;2024-01-25T13:21:29;15.60;64.90
42149;DHT22;64624;47.208;8.706;2024-01-25T13:23:55;15.60;64.80
42149;DHT22;64624;47.208;8.706;2024-01-25T13:26:21;15.60;64.80
42149;DHT22;64624;47.208;8.706;2024-01-25T13:28:46;15.60;64.80
42149;DHT22;64624;47.208;8.706;2024-01-25T13:31:12;15.60;64.80
42149;DHT22;64624;47.208;8.706;2024-01-25T13:33:38;15.60;64.80
42149;DHT22;64624;47.208;8.706;2024-01-25T13:36:03;15.60;64.80
42149;DHT22;64624;47.208;8.706;2024-01-25T13:38:34;15.60;64.80
42149;DHT22;64624;47.208;8.706;2024-01-25T13:41:00;15.60;64.80
42149;DHT22;64624;47.208;8.706;2024-01-25T13:43:26;15.70;64.90
42149;DHT22;64624;47.208;8.706;2024-01-25T13:45:55;15.60;64.90
42149;DHT22;64624;47.208;8.706;2024-01-25T13:48:21;15.60;65.00
42149;DHT22;64624;47.208;8.706;2024-01-25T13:50:47;15.70;65.00
42149;DHT22;64624;47.208;8.706;2024-01-25T13:53:13;15.60;65.20
42149;DHT22;64624;47.208;8.706;2024-01-25T13:55:39;15.60;65.50
42149;DHT22;64624;47.208;8.706;2024-01-25T13:58:05;15.60;65.50
42149;DHT22;64624;47.208;8.706;2024-01-25T14:00:30;15.70;65.60
42149;DHT22;64624;47.208;8.706;2024-01-25T14:02:56;15.70;65.60
42149;DHT22;64624;47.208;8.706;2024-01-25T14:05:21;15.70;65.40
42149;DHT22;64624;47.208;8.706;2024-01-25T14:07:48;15.70;65.40
42149;DHT22;64624;47.208;8.706;2024-01-25T14:10:14;15.70;65.20
42149;DHT22;64624;47.208;8.706;2024-01-25T14:12:40;15.70;65.20
42149;DHT22;64624;47.208;8.706;2024-01-25T14:15:06;15.70;65.10
42149;DHT22;64624;47.208;8.706;2024-01-25T14:17:32;15.70;65.10
42149;DHT22;64624;47.208;8.706;2024-01-25T14:19:58;15.70;65.10
42149;DHT22;64624;47.208;8.706;2024-01-25T14:22:24;15.70;65.10
42149;DHT22;64624;47.208;8.706;2024-01-25T14:24:50;15.70;65.10
42149;DHT22;64624;47.208;8.706;2024-01-25T14:27:15;15.70;65.10
42149;DHT22;64624;47.208;8.706;2024-01-25T14:29:41;15.70;65.10
42149;DHT22;64624;47.208;8.706;2024-01-25T14:32:07;15.70;65.10
42149;DHT22;64624;47.208;8.706;2024-01-25T14:34:32;15.70;65.10
42149;DHT22;64624;47.208;8.706;2024-01-25T14:36:58;15.70;65.10
42149;DHT22;64624;47.208;8.706;2024-01-25T14:39:24;15.70;65.10
42149;DHT22;64624;47.208;8.706;2024-01-25T14:41:53;15.70;65.10
42149;DHT22;64624;47.208;8.706;2024-01-25T14:44:19;15.70;65.10
42149;DHT22;64624;47.208;8.706;2024-01-25T14:46:46;15.70;65.60
42149;DHT22;64624;47.208;8.706;2024-01-25T14:49:11;15.70;65.10
42149;DHT22;64624;47.208;8.706;2024-01-25T14:51:37;15.70;65.10
42149;DHT22;64624;47.208;8.706;2024-01-25T14:54:03;15.70;65.60
42149;DHT22;64624;47.208;8.706;2024-01-25T14:56:29;15.70;65.10
42149;DHT22;64624;47.208;8.706;2024-01-25T14:58:55;15.70;65.10
42149;DHT22;64624;47.208;8.706;2024-01-25T15:01:20;15.70;65.10
42149;DHT22;64624;47.208;8.706;2024-01-25T15:03:53;15.70;65.10
42149;DHT22;64624;47.208;8.706;2024-01-25T15:06:19;15.70;65.10
42149;DHT22;64624;47.208;8.706;2024-01-25T15:08:44;15.70;65.10
42149;DHT22;64624;47.208;8.706;2024-01-25T15:11:10;15.70;65.10
42149;DHT22;64624;47.208;8.706;2024-01-25T15:13:36;15.70;65.10
42149;DHT22;64624;47.208;8.706;2024-01-25T15:16:02;15.70;65.10
42149;DHT22;64624;47.208;8.706;2024-01-25T15:18:28;15.70;65.10
42149;DHT22;64624;47.208;8.706;2024-01-25T15:20:54;15.70;65.10
42149;DHT22;64624;47.208;8.706;2024-01-25T15:23:20;15.70;65.10
42149;DHT22;64624;47.208;8.706;2024-01-25T15:25:46;15.70;65.10